createdAt,value
2018-12-02T00:01:37.548Z,93.10
2018-12-02T00:04:07.704Z,93.30
2018-12-02T00:06:37.363Z,93.20
2018-12-02T00:09:07.955Z,93.60
2018-12-02T00:11:37.776Z,93.20
2018-12-02T00:14:07.556Z,93.10
2018-12-02T00:16:36.972Z,93.10
2018-12-02T00:19:06.619Z,93.20
2018-12-02T00:21:36.115Z,93.00
2018-12-02T00:24:05.921Z,92.70
2018-12-02T00:26:35.568Z,92.70
2018-12-02T00:29:05.233Z,92.80
2018-12-02T00:31:34.917Z,92.60
2018-12-02T00:34:04.601Z,92.70
2018-12-02T00:36:34.140Z,92.60
2018-12-02T00:39:04.032Z,92.60
2018-12-02T00:41:33.605Z,92.50
2018-12-02T00:44:03.338Z,92.40
2018-12-02T00:46:32.756Z,92.30
2018-12-02T00:49:02.267Z,92.50
2018-12-02T00:51:31.947Z,92.40
2018-12-02T00:54:01.511Z,92.30
2018-12-02T00:56:35.013Z,92.40
2018-12-02T00:59:04.793Z,92.30
2018-12-02T01:01:34.239Z,92.40
2018-12-02T01:04:03.924Z,92.50
2018-12-02T01:06:33.603Z,92.40
2018-12-02T01:09:03.400Z,92.50
2018-12-02T01:11:33.096Z,92.60
2018-12-02T01:14:02.659Z,92.50
2018-12-02T01:16:32.266Z,92.40
2018-12-02T01:19:01.878Z,92.30
2018-12-02T01:21:31.598Z,92.20
2018-12-02T01:24:01.328Z,92.30
2018-12-02T01:26:31.020Z,92.10
2018-12-02T01:29:00.771Z,92.30
2018-12-02T01:31:30.654Z,92.10
2018-12-02T01:34:00.386Z,92.30
2018-12-02T01:36:30.138Z,92.20
2018-12-02T01:38:59.894Z,92.00
2018-12-02T01:41:29.526Z,92.20
2018-12-02T01:43:59.011Z,92.10
2018-12-02T01:46:28.554Z,92.10
2018-12-02T01:48:58.239Z,92.30
2018-12-02T01:51:27.784Z,92.30
2018-12-02T01:53:57.523Z,92.20
2018-12-02T01:56:26.991Z,92.30
2018-12-02T01:58:56.564Z,92.30
2018-12-02T02:01:26.115Z,92.30
2018-12-02T02:03:55.588Z,92.40
2018-12-02T02:06:25.302Z,92.40
2018-12-02T02:08:54.876Z,92.40
2018-12-02T02:11:24.562Z,92.30
2018-12-02T02:13:54.082Z,92.20
2018-12-02T02:16:23.788Z,92.20
2018-12-02T02:18:53.625Z,92.20
2018-12-02T02:21:23.306Z,92.30
2018-12-02T02:23:52.862Z,92.10
2018-12-02T02:26:22.792Z,92.20
2018-12-02T02:28:52.464Z,92.30
2018-12-02T02:31:22.193Z,92.10
2018-12-02T02:33:51.667Z,92.10
2018-12-02T02:36:21.405Z,92.20
2018-12-02T02:38:51.029Z,92.00
2018-12-02T02:41:20.756Z,92.10
2018-12-02T02:43:50.295Z,92.10
2018-12-02T02:46:20.142Z,91.90
2018-12-02T02:48:49.580Z,91.90
2018-12-02T02:51:19.127Z,91.90
2018-12-02T02:53:48.888Z,91.90
2018-12-02T02:56:18.445Z,91.90
2018-12-02T02:58:48.111Z,91.90
2018-12-02T03:01:17.784Z,92.10
2018-12-02T03:03:47.486Z,91.80
2018-12-02T03:06:17.057Z,91.90
2018-12-02T03:08:46.627Z,92.30
2018-12-02T03:11:16.316Z,91.90
2018-12-02T03:13:46.136Z,91.90
2018-12-02T03:16:15.832Z,91.90
2018-12-02T03:18:45.597Z,91.90
2018-12-02T03:21:15.362Z,92.30
2018-12-02T03:23:45.125Z,92.40
2018-12-02T03:26:14.720Z,92.30
2018-12-02T03:28:44.307Z,92.40
2018-12-02T03:31:13.890Z,92.20
2018-12-02T03:33:43.617Z,92.40
2018-12-02T03:36:13.326Z,92.50
2018-12-02T03:38:42.915Z,92.40
2018-12-02T03:41:12.632Z,92.50
2018-12-02T03:43:42.175Z,92.50
2018-12-02T03:46:11.736Z,92.40
2018-12-02T03:48:41.512Z,92.50
2018-12-02T03:51:11.140Z,92.40
2018-12-02T03:53:40.592Z,92.30
2018-12-02T03:56:10.366Z,92.40
2018-12-02T03:58:40.112Z,92.50
2018-12-02T04:01:09.607Z,92.40
2018-12-02T04:03:39.261Z,92.20
2018-12-02T04:06:08.920Z,92.40
2018-12-02T04:08:38.572Z,92.20
2018-12-02T04:11:08.363Z,92.40
2018-12-02T04:13:38.043Z,92.20
2018-12-02T04:16:07.697Z,92.70
2018-12-02T04:18:37.249Z,92.30
2018-12-02T04:21:07.000Z,92.30
2018-12-02T04:23:36.720Z,92.10
2018-12-02T04:26:06.440Z,92.40
2018-12-02T04:28:35.888Z,92.00
2018-12-02T04:31:05.901Z,92.10
2018-12-02T04:33:35.550Z,91.70
2018-12-02T04:36:05.151Z,92.10
2018-12-02T04:38:34.881Z,91.90
2018-12-02T04:41:04.408Z,92.10
2018-12-02T04:43:34.086Z,91.90
2018-12-02T04:46:03.785Z,91.90
2018-12-02T04:48:33.361Z,91.90
2018-12-02T04:51:02.963Z,92.00
2018-12-02T04:53:32.580Z,92.10
2018-12-02T04:56:02.321Z,92.20
2018-12-02T04:58:32.032Z,92.10
2018-12-02T05:01:01.799Z,92.20
2018-12-02T05:03:31.484Z,92.10
2018-12-02T05:06:00.876Z,92.40
2018-12-02T05:08:30.523Z,92.20
2018-12-02T05:11:00.186Z,92.20
2018-12-02T05:13:29.703Z,92.30
2018-12-02T05:15:59.268Z,92.40
2018-12-02T05:18:28.943Z,92.40
2018-12-02T05:20:58.608Z,92.40
2018-12-02T05:23:28.203Z,92.20
2018-12-02T05:25:57.798Z,92.30
2018-12-02T05:28:27.432Z,92.20
2018-12-02T05:30:57.160Z,92.30
2018-12-02T05:33:26.726Z,92.30
2018-12-02T05:35:56.478Z,92.40
2018-12-02T05:38:25.963Z,92.00
2018-12-02T05:40:55.691Z,92.40
2018-12-02T05:43:25.259Z,91.90
2018-12-02T05:45:55.043Z,92.30
2018-12-02T05:48:24.698Z,91.30
2018-12-02T05:50:54.464Z,91.30
2018-12-02T05:53:23.949Z,91.40
2018-12-02T05:55:53.532Z,91.70
2018-12-02T05:58:23.133Z,91.60
2018-12-02T06:00:52.672Z,91.80
2018-12-02T06:03:22.288Z,92.00
2018-12-02T06:05:52.013Z,91.90
2018-12-02T06:08:21.702Z,92.20
2018-12-02T06:10:51.428Z,92.20
2018-12-02T06:13:21.082Z,92.50
2018-12-02T06:15:50.730Z,92.30
2018-12-02T06:18:20.280Z,92.40
2018-12-02T06:20:50.000Z,92.30
2018-12-02T06:23:19.790Z,92.20
2018-12-02T06:25:49.331Z,92.10
2018-12-02T06:28:19.085Z,91.90
2018-12-02T06:30:48.847Z,92.10
2018-12-02T06:33:18.445Z,92.20
2018-12-02T06:35:48.384Z,92.30
2018-12-02T06:38:18.011Z,92.70
2018-12-02T06:40:47.858Z,92.40
2018-12-02T06:43:17.615Z,92.10
2018-12-02T06:45:47.216Z,92.20
2018-12-02T06:48:16.833Z,92.30
2018-12-02T06:50:46.480Z,92.10
2018-12-02T06:53:15.972Z,92.50
2018-12-02T06:55:54.166Z,92.10
2018-12-02T06:59:37.460Z,92.80
2018-12-02T07:02:53.471Z,92.40
2018-12-02T07:05:28.102Z,92.50
2018-12-02T07:07:57.759Z,92.50
2018-12-02T07:10:27.343Z,92.60
2018-12-02T07:12:57.090Z,92.60
2018-12-02T07:15:26.579Z,92.70
2018-12-02T07:17:59.240Z,92.70
2018-12-02T07:20:32.114Z,92.70
2018-12-02T07:23:05.026Z,92.50
2018-12-02T07:25:37.324Z,92.70
2018-12-02T07:28:07.391Z,93.00
2018-12-02T07:30:37.074Z,93.20
2018-12-02T07:33:07.274Z,93.30
2018-12-02T07:35:37.088Z,93.50
2018-12-02T07:38:15.201Z,93.60
2018-12-02T07:40:44.970Z,93.70
2018-12-02T07:43:14.692Z,93.80
2018-12-02T07:45:44.316Z,93.90
2018-12-02T07:48:14.008Z,94.10
2018-12-02T07:50:43.844Z,94.30
2018-12-02T07:53:13.562Z,94.20
2018-12-02T07:55:43.240Z,94.30
2018-12-02T07:58:16.825Z,94.60
2018-12-02T08:00:46.440Z,94.60
2018-12-02T08:03:15.868Z,94.80
2018-12-02T08:05:45.305Z,94.80
2018-12-02T08:08:15.104Z,95.10
2018-12-02T08:10:44.755Z,95.10
2018-12-02T08:13:14.412Z,95.10
2018-12-02T08:15:43.884Z,95.10
2018-12-02T08:18:13.475Z,95.30
2018-12-02T08:20:43.052Z,95.30
2018-12-02T08:23:12.654Z,95.40
2018-12-02T08:25:42.462Z,95.60
2018-12-02T08:28:12.157Z,95.70
2018-12-02T08:30:41.853Z,95.90
2018-12-02T08:33:11.430Z,96.10
2018-12-02T08:35:41.104Z,96.10
2018-12-02T08:38:11.609Z,96.10
2018-12-02T08:40:40.985Z,96.20
2018-12-02T08:43:10.519Z,96.20
2018-12-02T08:45:40.151Z,96.30
2018-12-02T08:48:09.807Z,96.50
2018-12-02T08:50:39.532Z,96.10
2018-12-02T08:53:09.247Z,95.90
2018-12-02T08:55:39.379Z,96.00
2018-12-02T08:58:09.952Z,95.80
2018-12-02T09:00:40.135Z,95.60
2018-12-02T09:03:10.806Z,95.40
2018-12-02T09:05:40.809Z,95.60
2018-12-02T09:08:11.684Z,95.10
2018-12-02T09:10:42.212Z,95.40
2018-12-02T09:13:11.963Z,95.10
2018-12-02T09:15:41.537Z,95.20
2018-12-02T09:18:11.414Z,94.90
2018-12-02T09:20:40.868Z,95.00
2018-12-02T09:23:11.268Z,94.80
2018-12-02T09:25:40.776Z,94.90
2018-12-02T09:28:10.362Z,94.70
2018-12-02T09:30:39.825Z,94.60
2018-12-02T09:33:09.344Z,94.50
2018-12-02T09:35:39.043Z,94.50
2018-12-02T09:38:08.762Z,94.40
2018-12-02T09:40:38.283Z,94.60
2018-12-02T09:43:07.987Z,95.20
2018-12-02T09:45:37.512Z,95.20
2018-12-02T09:48:07.455Z,95.10
2018-12-02T09:50:37.043Z,95.00
2018-12-02T09:53:07.276Z,95.00
2018-12-02T09:55:42.623Z,94.90
2018-12-02T09:58:20.712Z,94.90
2018-12-02T10:00:50.427Z,95.10
2018-12-02T10:05:49.521Z,95.30
2018-12-02T10:08:19.211Z,95.40
2018-12-02T10:10:48.895Z,95.40
2018-12-02T10:13:20.170Z,95.60
2018-12-02T10:15:49.883Z,95.30
2018-12-02T10:18:19.515Z,95.30
2018-12-02T10:20:49.295Z,95.60
2018-12-02T10:23:19.012Z,95.10
2018-12-02T10:25:48.722Z,95.20
2018-12-02T10:28:18.347Z,95.10
2018-12-02T10:30:47.940Z,95.00
2018-12-02T10:33:17.658Z,94.80
2018-12-02T10:35:47.423Z,95.00
2018-12-02T10:38:17.175Z,94.60
2018-12-02T10:40:46.784Z,94.60
2018-12-02T10:43:16.481Z,94.90
2018-12-02T10:45:46.241Z,94.60
2018-12-02T10:48:15.798Z,94.80
2018-12-02T10:50:45.498Z,94.80
2018-12-02T10:53:17.022Z,94.90
2018-12-02T10:55:54.623Z,94.90
2018-12-02T10:58:26.434Z,94.80
2018-12-02T11:01:05.376Z,94.80
2018-12-02T11:03:34.973Z,94.80
2018-12-02T11:06:04.702Z,94.90
2018-12-02T11:08:34.360Z,94.90
2018-12-02T11:11:04.055Z,94.90
2018-12-02T11:13:33.531Z,94.90
2018-12-02T11:16:03.213Z,95.00
2018-12-02T11:18:32.820Z,95.00
2018-12-02T11:21:02.460Z,95.10
2018-12-02T11:23:32.127Z,95.50
2018-12-02T11:26:01.860Z,95.20
2018-12-02T11:28:31.549Z,95.30
2018-12-02T11:31:01.068Z,95.20
2018-12-02T11:33:30.774Z,95.20
2018-12-02T11:36:00.384Z,95.10
2018-12-02T11:38:29.834Z,95.00
2018-12-02T11:40:59.599Z,94.70
2018-12-02T11:43:29.105Z,94.90
2018-12-02T11:45:58.520Z,95.00
2018-12-02T11:48:28.186Z,95.10
2018-12-02T11:50:57.547Z,95.10
2018-12-02T11:53:27.176Z,95.00
2018-12-02T11:55:56.717Z,95.10
2018-12-02T11:58:26.704Z,95.20
2018-12-02T12:00:56.162Z,95.20
2018-12-02T12:03:25.880Z,95.30
2018-12-02T12:05:55.356Z,95.40
2018-12-02T12:08:24.978Z,95.60
2018-12-02T12:10:54.693Z,95.60
2018-12-02T12:13:24.244Z,95.70
2018-12-02T12:15:53.890Z,95.60
2018-12-02T12:18:23.562Z,95.60
2018-12-02T12:20:53.158Z,95.60
2018-12-02T12:23:22.807Z,95.30
2018-12-02T12:25:52.462Z,95.40
2018-12-02T12:28:22.240Z,95.30
2018-12-02T12:30:51.976Z,95.20
2018-12-02T12:33:21.599Z,95.20
2018-12-02T12:35:51.835Z,95.40
2018-12-02T12:38:22.350Z,95.20
2018-12-02T12:40:52.088Z,95.10
2018-12-02T12:43:29.856Z,95.00
2018-12-02T12:46:00.484Z,95.00
2018-12-02T12:48:30.092Z,95.00
2018-12-02T12:50:59.781Z,95.10
2018-12-02T12:53:29.508Z,94.90
2018-12-02T12:55:59.131Z,95.10
2018-12-02T12:58:28.808Z,95.10
2018-12-02T13:00:58.320Z,95.20
2018-12-02T13:03:28.022Z,95.20
2018-12-02T13:05:57.556Z,95.30
2018-12-02T13:08:27.564Z,95.20
2018-12-02T13:10:57.391Z,95.40
2018-12-02T13:13:27.085Z,95.20
2018-12-02T13:15:56.790Z,95.40
2018-12-02T13:18:26.538Z,95.20
2018-12-02T13:20:56.372Z,95.20
2018-12-02T13:23:25.967Z,95.20
2018-12-02T13:25:55.683Z,95.10
2018-12-02T13:28:25.186Z,95.30
2018-12-02T13:30:54.888Z,95.20
2018-12-02T13:33:24.460Z,95.20
2018-12-02T13:35:54.303Z,95.20
2018-12-02T13:38:23.859Z,95.20
2018-12-02T13:40:53.714Z,95.10
2018-12-02T13:43:24.326Z,95.00
2018-12-02T13:45:54.051Z,94.90
2018-12-02T13:48:23.720Z,95.10
2018-12-02T13:50:53.165Z,95.40
2018-12-02T13:53:22.847Z,95.00
2018-12-02T13:55:52.686Z,95.30
2018-12-02T13:58:22.392Z,94.90
2018-12-02T14:00:51.915Z,95.10
2018-12-02T14:03:21.618Z,95.10
2018-12-02T14:05:51.151Z,95.20
2018-12-02T14:08:20.951Z,95.50
2018-12-02T14:10:50.476Z,95.10
2018-12-02T14:13:24.760Z,95.30
2018-12-02T14:16:00.350Z,95.40
2018-12-02T14:18:33.912Z,95.40
2018-12-02T14:21:03.416Z,95.30
2018-12-02T14:23:32.997Z,95.30
2018-12-02T14:26:05.348Z,95.30
2018-12-02T14:29:09.207Z,95.50
2018-12-02T14:31:40.387Z,95.60
2018-12-02T14:34:10.052Z,95.50
2018-12-02T14:36:39.777Z,95.50
2018-12-02T14:39:11.711Z,95.60
2018-12-02T14:41:41.440Z,95.60
2018-12-02T14:44:11.146Z,95.70
2018-12-02T14:46:40.886Z,96.00
2018-12-02T14:49:10.538Z,95.70
2018-12-02T14:51:40.221Z,95.80
2018-12-02T14:54:09.832Z,95.80
2018-12-02T14:56:39.506Z,95.80
2018-12-02T14:59:09.008Z,95.70
2018-12-02T15:01:38.627Z,95.60
2018-12-02T15:04:08.355Z,95.70
2018-12-02T15:06:38.167Z,95.60
2018-12-02T15:09:09.540Z,96.00
2018-12-02T15:11:39.204Z,95.70
2018-12-02T15:14:10.179Z,95.70
2018-12-02T15:16:39.725Z,95.80
2018-12-02T15:19:10.340Z,95.70
2018-12-02T15:21:40.116Z,95.60
2018-12-02T15:24:09.756Z,95.50
2018-12-02T15:26:39.584Z,95.60
2018-12-02T15:29:09.418Z,95.60
2018-12-02T15:31:39.059Z,95.70
2018-12-02T15:34:08.650Z,95.70
2018-12-02T15:36:38.228Z,95.70
2018-12-02T15:39:10.297Z,95.80
2018-12-02T15:41:40.026Z,95.80
2018-12-02T15:44:09.658Z,95.80
2018-12-02T15:46:39.288Z,95.90
2018-12-02T15:49:08.904Z,95.90
2018-12-02T15:51:38.551Z,95.90
2018-12-02T15:54:08.275Z,95.80
2018-12-02T15:56:37.864Z,95.90
2018-12-02T15:59:08.863Z,95.90
2018-12-02T16:01:38.671Z,96.00
2018-12-02T16:04:08.312Z,96.10
2018-12-02T16:06:38.097Z,96.00
2018-12-02T16:09:09.595Z,96.00
2018-12-02T16:11:39.017Z,96.10
2018-12-02T16:14:08.704Z,96.10
2018-12-02T16:16:38.388Z,96.10
2018-12-02T16:19:08.077Z,96.20
2018-12-02T16:21:37.831Z,96.60
2018-12-02T16:24:07.263Z,96.30
2018-12-02T16:26:36.962Z,96.30
2018-12-02T16:29:06.599Z,96.40
2018-12-02T16:31:36.283Z,96.40
2018-12-02T16:34:06.170Z,96.50
2018-12-02T16:36:35.929Z,96.50
2018-12-02T16:39:08.824Z,96.60
2018-12-02T16:41:38.626Z,96.50
2018-12-02T16:44:07.994Z,96.50
2018-12-02T16:46:37.856Z,96.90
2018-12-02T16:49:07.279Z,96.60
2018-12-02T16:51:36.890Z,96.60
2018-12-02T16:54:07.138Z,96.60
2018-12-02T16:56:37.344Z,96.60
2018-12-02T16:59:14.367Z,96.50
2018-12-02T17:01:46.005Z,96.50
2018-12-02T17:04:15.924Z,96.40
2018-12-02T17:06:45.722Z,96.40
2018-12-02T17:09:17.135Z,96.50
2018-12-02T17:11:47.728Z,96.50
2018-12-02T17:14:17.962Z,96.40
2018-12-02T17:16:49.834Z,96.50
2018-12-02T17:19:20.250Z,96.50
2018-12-02T17:21:50.168Z,96.40
2018-12-02T17:24:20.152Z,96.50
2018-12-02T17:26:50.175Z,96.40
2018-12-02T17:29:20.747Z,96.30
2018-12-02T17:32:07.874Z,96.40
2018-12-02T17:34:37.534Z,96.40
2018-12-02T17:37:07.047Z,96.40
2018-12-02T17:39:39.560Z,96.30
2018-12-02T17:42:10.849Z,96.40
2018-12-02T17:44:40.530Z,96.40
2018-12-02T17:47:10.244Z,96.40
2018-12-02T17:49:39.734Z,96.40
2018-12-02T17:52:09.551Z,96.30
2018-12-02T17:54:39.455Z,96.30
2018-12-02T17:57:09.062Z,96.30
2018-12-02T17:59:38.750Z,96.70
2018-12-02T18:02:08.380Z,96.30
2018-12-02T18:04:38.151Z,96.40
2018-12-02T18:07:07.677Z,96.40
2018-12-02T18:09:37.408Z,96.40
2018-12-02T18:12:07.298Z,96.50
2018-12-02T18:14:36.851Z,96.50
2018-12-02T18:17:06.556Z,96.40
2018-12-02T18:19:36.308Z,96.50
2018-12-02T18:22:06.144Z,96.40
2018-12-02T18:24:35.681Z,96.40
2018-12-02T18:27:05.587Z,96.40
2018-12-02T18:29:35.176Z,96.50
2018-12-02T18:32:04.967Z,96.50
2018-12-02T18:34:35.427Z,96.50
2018-12-02T18:37:06.384Z,96.50
2018-12-02T18:39:35.994Z,96.60
2018-12-02T18:42:06.638Z,96.60
2018-12-02T18:44:36.129Z,96.60
2018-12-02T18:47:05.982Z,96.50
2018-12-02T18:49:35.675Z,96.60
2018-12-02T18:52:05.336Z,96.50
2018-12-02T18:54:35.052Z,96.80
2018-12-02T18:57:04.814Z,96.50
2018-12-02T18:59:34.497Z,96.40
2018-12-02T19:02:04.330Z,96.40
2018-12-02T19:04:33.968Z,96.50
2018-12-02T19:07:03.736Z,96.40
2018-12-02T19:09:33.413Z,96.50
2018-12-02T19:12:02.960Z,96.50
2018-12-02T19:14:32.496Z,96.60
2018-12-02T19:17:02.134Z,96.50
2018-12-02T19:19:31.947Z,96.50
2018-12-02T19:22:01.436Z,96.50
2018-12-02T19:24:31.148Z,96.50
2018-12-02T19:27:00.974Z,96.50
2018-12-02T19:29:32.459Z,96.80
2018-12-02T19:32:02.021Z,96.50
2018-12-02T19:34:31.871Z,96.50
2018-12-02T19:37:03.855Z,96.50
2018-12-02T19:39:33.568Z,96.50
2018-12-02T19:42:03.167Z,96.50
2018-12-02T19:44:33.006Z,96.50
2018-12-02T19:47:02.525Z,96.60
2018-12-02T19:49:32.230Z,96.70
2018-12-02T19:52:01.977Z,96.70
2018-12-02T19:54:31.763Z,96.60
2018-12-02T19:57:01.406Z,96.60
2018-12-02T19:59:31.355Z,96.50
2018-12-02T20:02:01.070Z,96.50
2018-12-02T20:04:31.246Z,96.50
2018-12-02T20:07:01.012Z,96.50
2018-12-02T20:09:30.659Z,96.60
2018-12-02T20:12:00.514Z,96.60
2018-12-02T20:14:29.963Z,96.60
2018-12-02T20:16:59.636Z,96.70
2018-12-02T20:19:34.480Z,96.70
2018-12-02T20:22:04.002Z,96.80
2018-12-02T20:24:39.752Z,96.80
2018-12-02T20:27:09.844Z,96.80
2018-12-02T20:29:39.363Z,96.90
2018-12-02T20:32:10.518Z,97.00
2018-12-02T20:34:40.404Z,97.00
2018-12-02T20:37:09.986Z,97.10
2018-12-02T20:39:39.726Z,97.30
2018-12-02T20:42:09.358Z,97.30
2018-12-02T20:44:39.039Z,97.30
2018-12-02T20:47:08.780Z,97.50
2018-12-02T20:49:38.454Z,97.60
2018-12-02T20:52:08.008Z,97.50
2018-12-02T20:54:37.768Z,97.50
2018-12-02T20:57:07.485Z,97.60
2018-12-02T20:59:37.621Z,97.80
2018-12-02T21:02:07.395Z,98.30
2018-12-02T21:04:36.953Z,97.90
2018-12-02T21:07:06.872Z,97.90
2018-12-02T21:09:36.583Z,98.10
2018-12-02T21:12:06.476Z,98.20
2018-12-02T21:14:36.532Z,98.30
2018-12-02T21:17:06.817Z,98.30
2018-12-02T21:19:36.596Z,98.40
2018-12-02T21:22:06.799Z,98.40
2018-12-02T21:24:37.278Z,98.50
2018-12-02T21:27:07.298Z,98.40
2018-12-02T21:29:37.118Z,98.40
2018-12-02T21:32:07.064Z,98.40
2018-12-02T21:34:36.804Z,98.40
2018-12-02T21:37:07.383Z,98.50
2018-12-02T21:39:36.629Z,98.40
2018-12-02T21:42:07.225Z,98.40
2018-12-02T21:44:36.909Z,98.40
2018-12-02T21:47:07.178Z,98.40
2018-12-02T21:49:37.505Z,98.40
2018-12-02T21:52:07.264Z,98.40
2018-12-02T21:54:37.497Z,98.40
2018-12-02T21:57:07.516Z,98.40
2018-12-02T21:59:37.576Z,98.40
2018-12-02T22:02:07.291Z,98.40
2018-12-02T22:04:37.142Z,98.40
2018-12-02T22:07:07.252Z,98.30
2018-12-02T22:09:37.045Z,98.30
2018-12-02T22:12:07.249Z,98.30
2018-12-02T22:14:37.134Z,98.40
2018-12-02T22:17:07.846Z,98.30
2018-12-02T22:19:37.779Z,98.40
2018-12-02T22:22:07.664Z,98.40
2018-12-02T22:24:37.379Z,98.30
2018-12-02T22:27:07.540Z,98.20
2018-12-02T22:29:37.491Z,98.20
2018-12-02T22:32:07.317Z,98.20
2018-12-02T22:34:37.518Z,98.00
2018-12-02T22:37:07.614Z,98.20
2018-12-02T22:39:37.421Z,98.10
2018-12-02T22:42:07.194Z,98.10
2018-12-02T22:44:37.876Z,98.10
2018-12-02T22:47:07.444Z,98.00
2018-12-02T22:49:37.296Z,97.90
2018-12-02T22:52:07.233Z,98.10
2018-12-02T22:54:37.029Z,98.00
2018-12-02T22:57:07.167Z,97.90
2018-12-02T22:59:37.224Z,98.00
2018-12-02T23:02:13.324Z,98.00
2018-12-02T23:04:41.840Z,98.10
2018-12-02T23:07:11.580Z,98.10
2018-12-02T23:09:41.338Z,98.00
2018-12-02T23:12:11.075Z,97.90
2018-12-02T23:14:40.819Z,97.90
2018-12-02T23:17:20.848Z,97.90
2018-12-02T23:19:50.684Z,97.90
2018-12-02T23:22:20.414Z,97.80
2018-12-02T23:24:50.128Z,97.90
2018-12-02T23:27:19.740Z,97.90
2018-12-02T23:29:49.256Z,97.80
2018-12-02T23:32:18.911Z,97.80
2018-12-02T23:34:48.625Z,97.80
2018-12-02T23:37:20.674Z,97.80
2018-12-02T23:39:48.082Z,97.90
2018-12-02T23:42:17.698Z,97.80
2018-12-02T23:44:47.360Z,97.90
2018-12-02T23:47:17.103Z,97.80
2018-12-02T23:49:46.782Z,98.20
2018-12-02T23:52:16.458Z,97.90
2018-12-02T23:54:46.016Z,97.90
2018-12-02T23:57:15.773Z,97.80
2018-12-02T23:59:45.516Z,97.80
